Time;durP1;ratioP1;P1;durP2;ratioP2;P2;SDS_P1;SDS_P2;PMS_P1;PMS_P2;Temp;Humidity;BMP_temperature;BMP_pressure;BME280_temperature;BME280_humidity;BME280_pressure;Samples;Min_cycle;Max_cycle;Signal;HPM_P1;HPM_P2
2022/01/15 00:01:17;;;;;;;16.58;8.52;;;6.40;99.90;;;;;;5038806;28;20061;-42
2022/01/15 00:03:42;;;;;;;18.17;8.38;;;6.40;99.90;;;;;;5041468;28;20053;-45
2022/01/15 00:06:08;;;;;;;20.15;8.05;;;6.50;99.90;;;;;;5032674;28;20038;-44
2022/01/15 00:08:34;;;;;;;18.45;8.10;;;6.40;99.90;;;;;;5034474;28;20033;-44
2022/01/15 00:10:59;;;;;;;20.75;9.18;;;6.40;99.90;;;;;;5034913;28;20167;-42
2022/01/15 00:13:30;;;;;;;17.83;8.00;;;6.40;99.90;;;;;;5042263;28;20037;-42
2022/01/15 00:16:26;;;;;;;18.23;8.97;;;6.40;99.90;;;;;;5038202;28;20029;-43
2022/01/15 00:21:26;;;;;;;17.27;9.02;;;6.40;99.90;;;;;;5038034;28;20072;-42
2022/01/15 00:23:52;;;;;;;19.83;9.60;;;6.40;99.90;;;;;;5043036;28;20045;-42
2022/01/15 00:26:18;;;;;;;21.48;9.80;;;6.40;99.90;;;;;;5041515;28;20057;-46
2022/01/15 00:28:44;;;;;;;23.13;11.55;;;6.40;99.90;;;;;;5032022;28;20034;-42
2022/01/15 00:31:10;;;;;;;22.48;11.93;;;6.40;99.90;;;;;;5024231;28;20072;-43
2022/01/15 00:33:36;;;;;;;25.80;11.80;;;6.40;99.90;;;;;;5037616;28;20036;-43
2022/01/15 00:36:02;;;;;;;27.17;14.38;;;6.40;99.90;;;;;;5031026;28;20041;-44
2022/01/15 00:38:27;;;;;;;28.33;14.20;;;6.40;99.90;;;;;;5037087;28;20034;-42
2022/01/15 00:40:53;;;;;;;22.48;11.63;;;6.30;99.90;;;;;;5033890;28;20026;-42
2022/01/15 00:43:19;;;;;;;22.85;11.50;;;6.40;99.90;;;;;;5041430;28;20037;-42
2022/01/15 00:45:46;;;;;;;25.77;12.00;;;6.40;99.90;;;;;;5036544;28;20067;-42
2022/01/15 00:48:12;;;;;;;30.63;15.93;;;6.40;99.90;;;;;;5035424;28;20544;-43
2022/01/15 00:50:38;;;;;;;22.83;11.70;;;6.40;99.90;;;;;;5040016;28;20045;-43
2022/01/15 00:53:04;;;;;;;26.65;12.13;;;6.40;99.90;;;;;;5037535;28;20042;-43
2022/01/15 00:55:29;;;;;;;24.52;12.07;;;6.40;99.90;;;;;;5039690;28;20038;-43
2022/01/15 00:57:55;;;;;;;25.35;13.70;;;6.40;99.90;;;;;;5036805;28;20048;-44
2022/01/15 01:00:23;;;;;;;21.73;10.93;;;6.40;99.90;;;;;;5041163;28;20064;-44
2022/01/15 01:02:49;;;;;;;33.28;20.88;;;6.30;99.90;;;;;;5039208;28;20021;-43
2022/01/15 01:05:16;;;;;;;28.10;15.55;;;6.40;99.90;;;;;;5025875;28;20111;-42
2022/01/15 01:07:42;;;;;;;21.05;11.70;;;6.30;99.90;;;;;;5025327;28;20077;-43
2022/01/15 01:23:50;;;;;;;25.10;10.45;;;6.30;99.90;;;;;;5025153;28;20155;-42
2022/01/15 01:26:33;;;;;;;18.02;9.68;;;6.30;99.90;;;;;;5020123;28;20429;-44
2022/01/15 01:29:31;;;;;;;19.98;8.90;;;6.30;99.90;;;;;;5017425;28;20034;-42
2022/01/15 01:32:11;;;;;;;111.82;50.00;;;6.30;99.90;;;;;;5011699;28;20052;-43
2022/01/15 01:34:50;;;;;;;47.05;22.15;;;6.30;99.90;;;;;;5019598;28;20054;-52
2022/01/15 01:41:17;;;;;;;24.95;11.32;;;6.40;99.90;;;;;;5026959;28;20045;-50
2022/01/15 01:44:14;;;;;;;;;;;;;;;;;;;;;
2022/01/15 01:47:09;;;;;;;30.42;15.30;;;6.30;99.90;;;;;;5016064;28;20093;-50
2022/01/15 01:50:26;;;;;;;31.00;16.08;;;6.30;99.90;;;;;;5003084;28;20045;-51
2022/01/15 01:53:40;;;;;;;17.98;9.35;;;6.30;99.90;;;;;;5019584;28;20097;-50
2022/01/15 01:56:19;;;;;;;22.35;10.95;;;6.30;99.90;;;;;;5007232;28;20080;-53
2022/01/15 01:59:18;;;;;;;;;;;;;;;;;;;;;
2022/01/15 02:02:22;;;;;;;22.88;10.68;;;6.30;99.90;;;;;;5013099;28;20042;-53
2022/01/15 02:04:58;;;;;;;19.05;9.55;;;6.30;99.90;;;;;;5033509;28;20049;-53
2022/01/15 02:10:57;;;;;;;21.15;8.57;;;6.30;99.90;;;;;;5016068;28;20124;-53
2022/01/15 02:14:23;;;;;;;17.17;7.82;;;6.30;99.90;;;;;;5026844;28;20120;-52
2022/01/15 02:20:22;;;;;;;18.40;8.55;;;6.30;99.90;;;;;;5031325;28;20052;-52
2022/01/15 02:27:17;;;;;;;16.38;8.93;;;6.30;99.90;;;;;;5042133;28;20052;-49
2022/01/15 02:29:59;;;;;;;15.65;7.93;;;6.30;99.90;;;;;;4984177;28;20034;-52
2022/01/15 02:33:12;;;;;;;16.02;7.82;;;6.30;99.90;;;;;;4994863;28;20042;-51
2022/01/15 02:38:48;;;;;;;16.98;7.90;;;6.20;99.90;;;;;;4965545;28;20560;-49
2022/01/15 02:42:02;;;;;;;;;;;;;;;;;;;;;
2022/01/15 02:45:00;;;;;;;14.60;6.72;;;6.20;99.90;;;;;;5037961;28;20041;-52
2022/01/15 02:51:17;;;;;;;;;;;;;;;;;;;;;
2022/01/15 02:54:05;;;;;;;15.90;7.00;;;6.20;99.90;;;;;;5021983;28;20132;-48
2022/01/15 02:57:06;;;;;;;18.75;7.57;;;6.20;99.90;;;;;;5030239;28;20228;-49
2022/01/15 02:59:54;;;;;;;16.45;7.00;;;6.20;99.90;;;;;;5046365;28;20205;-50
2022/01/15 03:06:04;;;;;;;15.80;6.53;;;6.20;99.90;;;;;;5035570;28;20598;-52
2022/01/15 03:08:57;;;;;;;15.00;6.93;;;6.20;99.90;;;;;;5029926;28;20048;-49
2022/01/15 03:12:11;;;;;;;17.15;7.10;;;6.20;99.90;;;;;;5042010;28;20060;-48
2022/01/15 03:15:25;;;;;;;16.10;6.82;;;6.20;99.90;;;;;;5043851;28;20071;-50
2022/01/15 03:18:14;;;;;;;14.85;7.28;;;6.20;99.90;;;;;;5011491;28;20042;-52
2022/01/15 03:21:15;;;;;;;16.17;6.82;;;6.20;99.90;;;;;;5035339;28;20037;-50
2022/01/15 03:24:51;;;;;;;16.25;6.68;;;6.20;99.90;;;;;;5017330;28;20057;-51
2022/01/15 03:28:02;;;;;;;;;;;;;;;;;;;;;
2022/01/15 03:33:52;;;;;;;18.83;8.45;;;6.20;99.90;;;;;;5009482;28;20076;-86
2022/01/15 03:36:18;;;;;;;14.15;7.20;;;6.20;99.90;;;;;;4995922;28;20050;-86
2022/01/15 03:38:44;;;;;;;13.50;6.55;;;6.10;99.90;;;;;;4991697;28;20036;-87
2022/01/15 03:41:10;;;;;;;16.63;7.05;;;6.10;99.90;;;;;;4993689;28;20026;-86
2022/01/15 03:43:36;;;;;;;18.52;8.07;;;6.10;99.90;;;;;;4999030;28;20038;-84
2022/01/15 03:46:01;;;;;;;16.52;7.00;;;6.10;99.90;;;;;;5014410;28;20019;-84
2022/01/15 03:48:27;;;;;;;15.13;7.05;;;6.10;99.90;;;;;;4977117;28;20103;-84
2022/01/15 03:50:53;;;;;;;15.68;6.88;;;6.10;99.90;;;;;;4996401;28;20029;-86
2022/01/15 03:53:21;;;;;;;17.15;7.28;;;6.10;99.90;;;;;;4974030;28;20035;-85
2022/01/15 03:55:47;;;;;;;19.88;9.85;;;6.10;99.90;;;;;;4994579;28;20030;-86
2022/01/15 03:58:13;;;;;;;19.88;9.38;;;6.10;99.90;;;;;;4998326;28;20038;-85
2022/01/15 04:00:39;;;;;;;35.70;16.20;;;6.10;99.90;;;;;;4994029;28;20025;-85
2022/01/15 04:03:04;;;;;;;23.50;10.45;;;6.10;99.90;;;;;;4996208;28;20025;-85
2022/01/15 04:05:31;;;;;;;19.65;8.98;;;6.10;99.90;;;;;;4974689;28;20496;-85
2022/01/15 04:07:56;;;;;;;20.23;9.50;;;6.00;99.90;;;;;;5013316;28;20081;-85
2022/01/15 04:10:22;;;;;;;14.07;6.35;;;6.10;99.90;;;;;;5007431;28;20022;-84
2022/01/15 04:12:48;;;;;;;13.88;6.50;;;6.10;99.90;;;;;;5018712;28;20034;-85
2022/01/15 04:15:16;;;;;;;12.82;5.93;;;6.10;99.90;;;;;;4992215;28;20433;-84
2022/01/15 04:17:47;;;;;;;18.48;9.77;;;6.00;99.90;;;;;;4993714;28;20018;-85
2022/01/15 04:20:14;;;;;;;17.75;8.38;;;6.00;99.90;;;;;;4999842;28;20482;-87
2022/01/15 04:22:39;;;;;;;18.00;9.88;;;6.00;99.90;;;;;;5007936;28;20034;-87
2022/01/15 04:25:05;;;;;;;18.88;8.73;;;6.00;99.90;;;;;;4995570;28;20056;-86
2022/01/15 04:27:31;;;;;;;18.00;7.65;;;6.10;99.90;;;;;;5012548;28;20069;-86
2022/01/15 04:30:01;;;;;;;17.27;7.75;;;6.00;99.90;;;;;;4985674;28;20037;-86
2022/01/15 04:32:27;;;;;;;16.70;7.18;;;6.00;99.90;;;;;;4988982;28;20062;-86
2022/01/15 04:34:53;;;;;;;25.90;12.38;;;6.10;99.90;;;;;;4980521;28;20073;-86
2022/01/15 04:37:22;;;;;;;31.75;15.15;;;6.00;99.90;;;;;;5016775;28;20049;-86
2022/01/15 04:39:48;;;;;;;25.92;10.80;;;6.00;99.90;;;;;;4980644;28;20120;-85
2022/01/15 04:42:15;;;;;;;27.10;12.90;;;6.00;99.90;;;;;;4999859;28;20026;-86
2022/01/15 04:44:42;;;;;;;31.55;16.45;;;6.00;99.90;;;;;;4976532;28;20065;-85
2022/01/15 04:47:08;;;;;;;28.90;14.25;;;6.00;99.90;;;;;;5008965;28;20052;-85
2022/01/15 04:49:34;;;;;;;24.80;11.68;;;6.00;99.90;;;;;;5000579;28;20030;-84
2022/01/15 04:52:00;;;;;;;24.45;12.18;;;6.00;99.90;;;;;;5018496;28;20572;-85
2022/01/15 04:54:26;;;;;;;18.67;8.18;;;6.00;99.90;;;;;;4997121;28;20033;-85
2022/01/15 04:56:52;;;;;;;16.35;7.35;;;6.00;99.90;;;;;;5013546;28;20034;-85
2022/01/15 04:59:18;;;;;;;17.80;7.53;;;6.00;99.90;;;;;;5014727;28;20041;-86
2022/01/15 05:01:43;;;;;;;20.45;8.55;;;6.00;99.90;;;;;;4993712;28;20491;-84
2022/01/15 05:04:09;;;;;;;17.10;6.97;;;6.00;99.90;;;;;;4985595;28;20064;-84
2022/01/15 05:06:35;;;;;;;16.25;6.82;;;6.00;99.90;;;;;;5011924;28;20372;-84
2022/01/15 05:09:04;;;;;;;17.23;7.13;;;6.00;99.90;;;;;;5018397;28;20103;-84
2022/01/15 05:11:43;;;;;;;16.23;7.47;;;6.00;99.90;;;;;;5002979;28;20033;-84
2022/01/15 05:14:10;;;;;;;21.25;9.52;;;6.00;99.90;;;;;;5003212;28;20034;-85
2022/01/15 05:16:36;;;;;;;15.50;7.90;;;6.00;99.90;;;;;;5002864;28;20026;-85
2022/01/15 05:19:02;;;;;;;25.13;11.50;;;5.90;99.90;;;;;;4996469;28;20164;-85
2022/01/15 05:21:28;;;;;;;28.83;14.02;;;6.00;99.90;;;;;;5017616;28;20026;-85
2022/01/15 05:23:54;;;;;;;20.55;9.95;;;6.00;99.90;;;;;;5017560;28;20076;-85
2022/01/15 05:26:20;;;;;;;17.90;7.93;;;5.90;99.90;;;;;;5016387;28;20030;-85
2022/01/15 05:28:45;;;;;;;16.13;7.45;;;5.90;99.90;;;;;;4987796;28;20075;-85
2022/01/15 05:31:12;;;;;;;14.48;6.28;;;5.90;99.90;;;;;;4984456;28;20532;-84
2022/01/15 05:33:37;;;;;;;19.25;8.30;;;5.90;99.90;;;;;;4981002;28;20519;-85
2022/01/15 05:36:03;;;;;;;15.40;6.82;;;5.90;99.90;;;;;;5016599;28;20057;-84
2022/01/15 05:38:29;;;;;;;15.95;6.40;;;5.90;99.90;;;;;;4998527;28;20042;-84
2022/01/15 05:40:55;;;;;;;13.52;6.07;;;5.90;99.90;;;;;;5005767;28;20030;-84
2022/01/15 05:43:21;;;;;;;13.80;6.10;;;5.90;99.90;;;;;;5016772;28;20072;-85
2022/01/15 05:45:46;;;;;;;14.38;6.53;;;5.90;99.90;;;;;;5017182;28;20052;-84
2022/01/15 05:48:12;;;;;;;13.32;5.85;;;5.90;99.90;;;;;;4999924;28;20577;-86
2022/01/15 05:50:38;;;;;;;12.48;5.88;;;5.80;99.90;;;;;;5001969;28;20041;-85
2022/01/15 05:53:04;;;;;;;20.08;7.28;;;5.80;99.90;;;;;;5013350;28;20049;-85
2022/01/15 05:55:29;;;;;;;21.20;9.40;;;5.80;99.90;;;;;;5008969;28;20049;-85
2022/01/15 05:57:55;;;;;;;38.33;17.85;;;5.80;99.90;;;;;;5017433;28;20037;-84
2022/01/15 06:00:20;;;;;;;31.73;15.18;;;5.80;99.90;;;;;;5015987;28;20057;-85
2022/01/15 06:02:46;;;;;;;44.45;20.08;;;5.80;99.90;;;;;;4995217;28;20036;-84
2022/01/15 06:05:15;;;;;;;37.38;15.70;;;5.80;99.90;;;;;;4980425;28;20541;-85
2022/01/15 06:07:41;;;;;;;32.90;13.68;;;5.80;99.90;;;;;;4980063;28;20062;-84
2022/01/15 06:10:07;;;;;;;21.65;9.77;;;5.80;99.90;;;;;;4992481;28;20038;-85
2022/01/15 06:12:41;;;;;;;15.38;6.78;;;5.80;99.90;;;;;;5016784;28;20022;-84
2022/01/15 06:15:10;;;;;;;12.45;5.38;;;5.80;99.90;;;;;;4981127;28;20041;-84
2022/01/15 06:17:37;;;;;;;19.77;8.60;;;5.80;99.90;;;;;;5020570;28;20085;-86
2022/01/15 06:20:03;;;;;;;18.20;7.90;;;5.80;99.90;;;;;;5011469;28;20062;-85
2022/01/15 06:22:29;;;;;;;21.17;9.88;;;5.80;99.90;;;;;;5002799;28;20061;-85
2022/01/15 06:24:55;;;;;;;17.77;7.43;;;5.70;99.90;;;;;;4996128;28;20053;-85
2022/01/15 06:27:20;;;;;;;14.65;6.30;;;5.80;99.90;;;;;;5013879;28;20139;-84
2022/01/15 06:29:46;;;;;;;12.45;5.50;;;5.80;99.90;;;;;;5019324;28;20239;-85
2022/01/15 06:32:12;;;;;;;15.85;6.10;;;5.80;99.90;;;;;;4995242;28;20656;-85
2022/01/15 06:34:39;;;;;;;13.27;5.53;;;5.80;99.90;;;;;;4994804;28;20034;-86
2022/01/15 06:37:05;;;;;;;12.77;4.65;;;5.80;99.90;;;;;;5001217;28;20086;-85
2022/01/15 06:39:34;;;;;;;14.20;6.32;;;5.70;99.90;;;;;;4996391;28;20034;-85
2022/01/15 06:42:01;;;;;;;13.70;5.60;;;5.80;99.90;;;;;;5018766;28;20030;-85
2022/01/15 06:44:27;;;;;;;13.68;5.82;;;5.70;99.90;;;;;;5005678;28;20049;-85
2022/01/15 06:46:53;;;;;;;12.45;5.68;;;5.80;99.90;;;;;;4997566;28;20030;-84
2022/01/15 06:49:18;;;;;;;12.35;5.45;;;5.70;99.90;;;;;;5007806;28;20022;-86
2022/01/15 06:51:44;;;;;;;14.50;6.30;;;5.70;99.90;;;;;;5013082;28;20054;-85
2022/01/15 06:54:10;;;;;;;12.43;5.43;;;5.70;99.90;;;;;;4981270;28;20045;-81
2022/01/15 06:56:35;;;;;;;11.73;5.53;;;5.70;99.90;;;;;;5018385;28;20026;-86
2022/01/15 06:59:01;;;;;;;12.20;5.97;;;5.70;99.90;;;;;;4993144;28;20085;-84
2022/01/15 07:01:27;;;;;;;12.73;5.45;;;5.70;99.90;;;;;;4994799;28;20682;-82
2022/01/15 07:03:53;;;;;;;11.50;5.20;;;5.60;99.90;;;;;;4997435;28;20044;-87
2022/01/15 07:06:18;;;;;;;12.70;5.90;;;5.60;99.90;;;;;;4994279;28;20022;-83
2022/01/15 07:08:44;;;;;;;12.55;5.45;;;5.60;99.90;;;;;;5013388;28;20113;-86
2022/01/15 07:11:09;;;;;;;11.15;4.97;;;5.60;99.90;;;;;;4989516;28;20044;-93
2022/01/15 07:13:36;;;;;;;10.60;5.03;;;5.60;99.90;;;;;;5008782;28;20018;-90
2022/01/15 07:16:02;;;;;;;10.23;4.65;;;5.50;99.90;;;;;;5013959;28;20042;-87
2022/01/15 07:18:28;;;;;;;10.95;4.82;;;5.50;99.90;;;;;;5001010;28;20042;-86
2022/01/15 07:20:54;;;;;;;11.13;5.25;;;5.50;99.90;;;;;;4995532;28;20026;-86
2022/01/15 07:23:20;;;;;;;11.57;4.75;;;5.50;99.90;;;;;;5017289;28;20873;-86
2022/01/15 07:25:46;;;;;;;12.75;5.22;;;5.50;99.90;;;;;;4996669;28;20089;-86
2022/01/15 07:28:12;;;;;;;13.43;5.45;;;5.50;99.90;;;;;;5013087;28;20113;-85
2022/01/15 07:30:38;;;;;;;12.98;5.50;;;5.50;99.90;;;;;;5020799;28;20030;-85
2022/01/15 07:33:04;;;;;;;11.95;5.30;;;5.50;99.90;;;;;;5014530;28;20603;-85
2022/01/15 07:35:30;;;;;;;13.02;5.28;;;5.50;99.90;;;;;;5010275;28;20044;-85
2022/01/15 07:37:56;;;;;;;13.00;5.55;;;5.50;99.90;;;;;;5005553;28;20018;-85
2022/01/15 07:40:22;;;;;;;12.45;5.45;;;5.50;99.90;;;;;;5000349;28;20021;-83
2022/01/15 07:42:48;;;;;;;13.23;5.72;;;5.50;99.90;;;;;;5013582;28;20069;-87
2022/01/15 07:45:16;;;;;;;12.23;5.78;;;5.50;99.90;;;;;;5007641;28;20049;-86
2022/01/15 07:47:42;;;;;;;13.02;6.07;;;5.50;99.90;;;;;;5024619;28;20028;-86
2022/01/15 07:50:14;;;;;;;14.02;6.45;;;5.50;99.90;;;;;;5024878;28;20030;-86
2022/01/15 07:52:41;;;;;;;12.90;5.95;;;5.50;99.90;;;;;;5005364;28;20479;-86
2022/01/15 07:55:07;;;;;;;13.02;5.68;;;5.50;99.90;;;;;;4989169;28;20033;-86
2022/01/15 07:57:33;;;;;;;15.50;6.63;;;5.50;99.90;;;;;;4986319;28;20069;-86
2022/01/15 07:59:59;;;;;;;17.48;7.13;;;5.50;99.90;;;;;;4988587;28;20031;-87
2022/01/15 08:02:25;;;;;;;14.07;6.57;;;5.50;99.90;;;;;;5004838;28;20397;-86
2022/01/15 08:04:51;;;;;;;14.52;6.63;;;5.50;99.90;;;;;;5009582;28;20042;-87
2022/01/15 08:07:18;;;;;;;16.13;6.78;;;5.50;99.90;;;;;;5004753;28;20034;-86
2022/01/15 08:09:44;;;;;;;14.77;6.63;;;5.50;99.90;;;;;;4987808;28;20022;-87
2022/01/15 08:12:11;;;;;;;14.18;6.40;;;5.50;99.90;;;;;;4974187;28;20505;-87
2022/01/15 08:14:37;;;;;;;14.35;6.82;;;5.50;99.90;;;;;;4987822;28;20037;-86
2022/01/15 08:17:03;;;;;;;16.75;7.18;;;5.50;99.90;;;;;;5003540;28;20036;-85
2022/01/15 08:19:29;;;;;;;15.50;6.60;;;5.50;99.90;;;;;;5002698;28;20030;-86
2022/01/15 08:21:55;;;;;;;14.93;6.32;;;5.50;99.90;;;;;;5004169;28;20447;-85
2022/01/15 08:24:20;;;;;;;14.00;6.45;;;5.40;99.90;;;;;;5004178;28;20085;-87
2022/01/15 08:26:47;;;;;;;15.52;6.68;;;5.50;99.90;;;;;;4961579;28;20023;-86
2022/01/15 08:29:12;;;;;;;15.45;6.53;;;5.40;99.90;;;;;;5004910;28;20030;-87
2022/01/15 08:31:38;;;;;;;15.88;6.85;;;5.40;99.90;;;;;;5014511;28;20053;-86
2022/01/15 08:34:04;;;;;;;14.55;6.95;;;5.40;99.90;;;;;;5016997;28;20093;-86
2022/01/15 08:36:32;;;;;;;14.65;7.30;;;5.50;99.90;;;;;;4995751;28;20078;-86
2022/01/15 08:38:57;;;;;;;17.00;6.97;;;5.50;99.90;;;;;;4977012;28;20036;-87
2022/01/15 08:41:24;;;;;;;16.33;7.68;;;5.50;99.90;;;;;;4952630;28;20035;-85
2022/01/15 08:43:50;;;;;;;17.92;7.75;;;5.50;99.90;;;;;;4981276;28;20398;-86
2022/01/15 08:46:18;;;;;;;18.80;8.32;;;5.50;99.90;;;;;;4973262;28;20023;-85
2022/01/15 08:48:44;;;;;;;17.80;9.00;;;5.50;99.90;;;;;;4973347;28;20102;-85
2022/01/15 08:51:10;;;;;;;19.13;8.18;;;5.50;99.90;;;;;;4974799;28;20056;-86
2022/01/15 08:53:36;;;;;;;17.88;9.05;;;5.50;99.90;;;;;;4976944;28;20559;-84
2022/01/15 08:56:03;;;;;;;20.17;9.82;;;5.40;99.90;;;;;;5006655;28;20027;-86
2022/01/15 08:58:29;;;;;;;20.02;9.40;;;5.40;99.90;;;;;;4958931;28;20019;-84
2022/01/15 09:00:55;;;;;;;19.98;9.90;;;5.40;99.90;;;;;;4977467;28;20065;-85
2022/01/15 09:03:22;;;;;;;22.77;11.05;;;5.50;99.90;;;;;;4977283;28;20058;-86
2022/01/15 09:05:51;;;;;;;20.15;9.50;;;5.50;99.90;;;;;;4951286;28;20085;-86
2022/01/15 09:08:20;;;;;;;20.42;9.82;;;5.50;99.90;;;;;;4979785;28;20023;-86
2022/01/15 09:10:46;;;;;;;21.83;9.88;;;5.50;99.90;;;;;;4975618;28;20519;-86
2022/01/15 09:13:12;;;;;;;25.08;10.48;;;5.50;99.90;;;;;;4979123;28;20047;-87
2022/01/15 09:15:38;;;;;;;21.67;9.95;;;5.50;99.90;;;;;;4974194;28;20031;-85
2022/01/15 09:18:04;;;;;;;23.13;10.65;;;5.50;99.90;;;;;;4975039;28;20038;-86
2022/01/15 09:20:30;;;;;;;22.20;10.27;;;5.60;99.90;;;;;;4959346;28;20082;-86
2022/01/15 09:22:56;;;;;;;22.80;10.18;;;5.60;99.90;;;;;;4979800;28;20034;-86
2022/01/15 09:25:21;;;;;;;24.38;11.48;;;5.50;99.90;;;;;;4978065;28;20046;-86
2022/01/15 09:30:32;;;;;;;22.17;10.52;;;5.50;99.90;;;;;;4975054;28;20057;-88
2022/01/15 09:32:58;;;;;;;25.83;11.52;;;5.50;99.90;;;;;;4981254;28;20060;-86
2022/01/15 09:35:28;;;;;;;27.35;12.68;;;5.50;99.90;;;;;;4993914;28;20085;-88
2022/01/15 09:37:55;;;;;;;25.20;11.95;;;5.50;99.90;;;;;;4982357;28;20066;-86
2022/01/15 09:40:23;;;;;;;22.17;9.80;;;5.50;99.90;;;;;;4993686;28;20086;-86
2022/01/15 09:42:50;;;;;;;24.40;12.05;;;5.50;99.90;;;;;;4994421;28;20054;-89
2022/01/15 09:45:18;;;;;;;25.88;11.88;;;5.50;99.90;;;;;;4997321;28;20045;-87
2022/01/15 09:47:45;;;;;;;24.08;11.13;;;5.40;99.90;;;;;;4998137;28;20046;-85
2022/01/15 09:50:14;;;;;;;23.92;10.57;;;5.50;99.90;;;;;;5008375;28;20035;-88
2022/01/15 09:52:40;;;;;;;22.50;10.07;;;5.40;99.90;;;;;;4991569;28;20019;-87
2022/01/15 09:55:09;;;;;;;24.58;11.20;;;5.40;99.90;;;;;;5016166;23;20054;-48
2022/01/15 09:57:37;;;;;;;21.98;10.68;;;5.40;99.90;;;;;;5021788;28;20057;-48
2022/01/15 10:00:09;;;;;;;25.50;11.18;;;5.40;99.90;;;;;;5023102;28;20057;-48
2022/01/15 10:02:36;;;;;;;23.13;10.05;;;5.40;99.90;;;;;;5021947;28;20030;-51
2022/01/15 10:05:02;;;;;;;25.52;11.70;;;5.40;99.90;;;;;;5021617;28;20041;-48
2022/01/15 10:07:28;;;;;;;25.48;11.57;;;5.40;99.90;;;;;;5023105;28;20044;-49
2022/01/15 10:09:55;;;;;;;27.92;11.32;;;5.50;99.90;;;;;;5018873;28;20063;-51
2022/01/15 10:12:28;;;;;;;29.85;13.50;;;5.50;99.90;;;;;;5023347;28;20076;-49
2022/01/15 10:14:58;;;;;;;27.33;12.10;;;5.50;99.90;;;;;;5021980;28;20045;-49
2022/01/15 10:17:29;;;;;;;27.00;12.60;;;5.60;99.90;;;;;;5023001;28;20021;-50
2022/01/15 10:19:58;;;;;;;35.08;14.57;;;5.50;99.90;;;;;;5021462;28;20037;-50
2022/01/15 10:22:26;;;;;;;31.50;12.85;;;5.50;99.90;;;;;;5019940;28;21445;-49
2022/01/15 10:24:55;;;;;;;26.75;12.57;;;5.50;99.90;;;;;;5021403;28;20052;-50
2022/01/15 10:27:35;;;;;;;26.42;12.25;;;5.50;99.90;;;;;;5019460;28;20034;-47
2022/01/15 10:30:17;;;;;;;27.95;12.35;;;5.60;99.90;;;;;;5020279;28;20052;-51
2022/01/15 10:33:03;;;;;;;25.42;11.60;;;5.50;99.90;;;;;;5019304;28;20030;-50
2022/01/15 10:35:46;;;;;;;22.67;10.43;;;5.50;99.90;;;;;;5019114;28;20045;-49
2022/01/15 10:38:13;;;;;;;24.48;11.07;;;5.50;99.90;;;;;;5019785;28;20034;-49
2022/01/15 10:40:47;;;;;;;23.42;10.45;;;5.40;99.90;;;;;;5017710;28;20128;-49
2022/01/15 10:43:16;;;;;;;23.88;11.15;;;5.50;99.90;;;;;;5018593;28;20486;-48
2022/01/15 10:45:54;;;;;;;22.15;10.55;;;5.40;99.90;;;;;;5018729;28;20490;-50
2022/01/15 10:48:25;;;;;;;21.77;11.50;;;5.40;99.90;;;;;;5019671;28;20030;-48
2022/01/15 10:50:59;;;;;;;23.00;11.23;;;5.40;99.90;;;;;;5019242;28;20673;-48
2022/01/15 10:53:44;;;;;;;19.52;10.30;;;5.50;99.90;;;;;;5018935;28;20072;-49
2022/01/15 10:56:12;;;;;;;19.88;9.77;;;5.50;99.90;;;;;;5022806;28;20495;-52
2022/01/15 10:58:39;;;;;;;19.95;10.02;;;5.40;99.90;;;;;;5022066;28;20032;-49
2022/01/15 11:01:05;;;;;;;22.38;10.48;;;5.40;99.90;;;;;;5020090;28;20081;-50
2022/01/15 11:03:45;;;;;;;22.10;10.45;;;5.40;99.90;;;;;;5021656;28;20205;-50
2022/01/15 11:06:11;;;;;;;20.88;10.90;;;5.40;99.90;;;;;;5021537;28;20389;-54
2022/01/15 11:08:43;;;;;;;22.55;11.25;;;5.40;99.90;;;;;;5021236;28;20022;-51
2022/01/15 11:11:09;;;;;;;;;;;5.30;99.90;;;;;;5021612;28;20030;-49
2022/01/15 11:13:46;;;;;;;21.58;10.73;;;5.40;99.90;;;;;;5021332;28;19909;-48
2022/01/15 11:16:15;;;;;;;22.80;12.07;;;5.40;99.90;;;;;;5022084;28;20023;-49
2022/01/15 11:18:43;;;;;;;22.33;12.05;;;5.40;99.90;;;;;;5021419;28;20481;-54
2022/01/15 11:21:13;;;;;;;22.58;11.70;;;5.40;99.90;;;;;;5024734;28;20033;-50
2022/01/15 11:23:40;;;;;;;23.00;12.25;;;5.40;99.90;;;;;;5024576;28;20076;-52
2022/01/15 11:26:08;;;;;;;24.55;13.00;;;5.40;99.90;;;;;;5025965;28;20038;-48
2022/01/15 11:28:34;;;;;;;23.63;12.07;;;5.40;99.90;;;;;;5025818;28;20018;-48
2022/01/15 11:31:04;;;;;;;25.17;12.88;;;5.40;99.90;;;;;;5025638;28;20113;-54
2022/01/15 11:33:33;;;;;;;25.05;12.15;;;5.50;99.90;;;;;;5026064;28;20029;-51
2022/01/15 11:35:59;;;;;;;27.40;13.43;;;5.50;99.90;;;;;;5022966;28;20037;-52
2022/01/15 11:38:45;;;;;;;24.08;12.55;;;5.50;99.90;;;;;;5026268;28;20038;-49
2022/01/15 11:41:22;;;;;;;27.17;13.20;;;5.50;99.90;;;;;;5024067;28;20026;-53
2022/01/15 11:43:50;;;;;;;23.98;12.07;;;5.50;99.90;;;;;;5024427;28;20041;-50
2022/01/15 11:46:24;;;;;;;26.00;13.18;;;5.50;99.90;;;;;;5022646;28;20030;-52
2022/01/15 11:48:50;;;;;;;25.17;12.93;;;5.50;99.90;;;;;;5022092;28;20037;-53
2022/01/15 11:51:17;;;;;;;24.20;12.70;;;5.50;99.90;;;;;;5023402;28;20037;-53
2022/01/15 11:53:57;;;;;;;30.95;15.77;;;5.50;99.90;;;;;;5021749;28;20056;-49
2022/01/15 11:56:27;;;;;;;24.75;13.48;;;5.50;99.90;;;;;;5042006;28;20033;-50
2022/01/15 11:59:07;;;;;;;26.48;14.55;;;5.50;99.90;;;;;;5037547;28;20025;-50
2022/01/15 12:01:37;;;;;;;27.00;13.75;;;5.50;99.90;;;;;;5032188;28;20030;-51
2022/01/15 12:04:32;;;;;;;23.33;13.68;;;5.50;99.90;;;;;;5040778;28;20048;-49
2022/01/15 12:07:01;;;;;;;24.65;13.32;;;5.50;99.90;;;;;;5039226;28;20033;-51
2022/01/15 12:09:44;;;;;;;27.95;14.02;;;5.40;99.90;;;;;;5041091;28;20041;-51
2022/01/15 12:15:06;;;;;;;26.67;12.50;;;5.50;99.90;;;;;;5038828;28;20032;-52
2022/01/15 12:17:44;;;;;;;25.63;12.57;;;5.40;99.90;;;;;;5042206;28;20483;-50
2022/01/15 12:20:25;;;;;;;26.67;12.93;;;5.50;99.90;;;;;;5041865;28;20051;-53
2022/01/15 12:22:53;;;;;;;25.63;13.48;;;5.50;99.90;;;;;;5040437;28;20029;-53
2022/01/15 12:25:19;;;;;;;28.45;13.18;;;5.40;99.90;;;;;;5042137;28;20065;-52
2022/01/15 12:28:06;;;;;;;27.98;13.90;;;5.50;99.90;;;;;;5040961;28;20485;-53
2022/01/15 12:30:35;;;;;;;24.70;12.32;;;5.40;99.90;;;;;;5041463;28;20041;-53
2022/01/15 12:33:03;;;;;;;25.00;13.00;;;5.40;99.90;;;;;;5043147;28;20056;-50
2022/01/15 12:35:31;;;;;;;25.20;13.45;;;5.50;99.90;;;;;;5043479;28;20032;-51
2022/01/15 12:38:11;;;;;;;28.23;13.85;;;5.30;99.90;;;;;;5044982;28;20089;-54
2022/01/15 12:40:47;;;;;;;29.48;15.38;;;5.40;99.90;;;;;;5043328;28;20033;-51
2022/01/15 12:43:36;;;;;;;31.63;13.68;;;5.30;99.90;;;;;;5044636;28;20552;-52
2022/01/15 12:46:08;;;;;;;27.90;13.30;;;5.30;99.90;;;;;;5044201;28;20045;-51
2022/01/15 12:48:44;;;;;;;27.52;14.05;;;5.30;99.90;;;;;;5044140;28;20027;-49
2022/01/15 12:51:15;;;;;;;27.50;14.35;;;5.30;99.90;;;;;;5044366;28;20076;-53
2022/01/15 12:53:45;;;;;;;29.58;14.30;;;5.20;99.90;;;;;;5043510;28;20021;-53
2022/01/15 12:56:14;;;;;;;28.27;14.80;;;5.30;99.90;;;;;;5044643;28;20037;-52
2022/01/15 12:58:41;;;;;;;30.67;14.60;;;5.30;99.90;;;;;;5044334;28;20045;-54
2022/01/15 13:01:08;;;;;;;28.25;14.63;;;5.30;99.90;;;;;;5044568;28;20033;-50
2022/01/15 13:03:37;;;;;;;27.98;14.50;;;5.40;99.90;;;;;;5047909;28;20052;-51
2022/01/15 13:06:04;;;;;;;31.40;15.02;;;5.40;99.90;;;;;;5047143;28;20326;-53
2022/01/15 13:08:35;;;;;;;32.00;15.40;;;5.40;99.90;;;;;;5048876;28;20033;-53
2022/01/15 13:11:06;;;;;;;32.17;16.07;;;5.40;99.90;;;;;;5049389;28;20108;-51
2022/01/15 13:13:39;;;;;;;28.93;14.90;;;5.40;99.90;;;;;;5049448;28;20013;-54
2022/01/15 13:16:23;;;;;;;29.80;16.35;;;5.40;99.90;;;;;;5049791;28;20315;-55
2022/01/15 13:18:54;;;;;;;33.50;15.98;;;5.40;99.90;;;;;;5049350;28;20039;-57
2022/01/15 13:21:22;;;;;;;32.97;16.50;;;5.40;99.90;;;;;;5023812;28;20037;-57
2022/01/15 13:24:14;;;;;;;35.80;18.10;;;5.40;99.90;;;;;;5039568;28;20025;-56
2022/01/15 13:26:41;;;;;;;;;;;5.40;99.90;;;;;;5033379;28;20115;-58
2022/01/15 13:29:11;;;;;;;35.70;15.60;;;5.40;99.90;;;;;;5039892;28;20003;-57
2022/01/15 13:31:39;;;;;;;29.98;15.63;;;5.30;99.90;;;;;;5039994;28;20048;-56
2022/01/15 13:34:28;;;;;;;35.50;16.70;;;5.30;99.90;;;;;;5040225;28;20056;-55
2022/01/15 13:36:54;;;;;;;33.22;16.00;;;5.30;99.90;;;;;;5036184;28;20125;-56
2022/01/15 13:39:20;;;;;;;34.45;16.88;;;5.30;99.90;;;;;;5037799;28;20061;-56
2022/01/15 13:41:46;;;;;;;33.40;17.95;;;5.30;99.90;;;;;;5040774;28;20083;-56
2022/01/15 13:44:15;;;;;;;34.05;17.02;;;5.20;99.90;;;;;;5010731;28;20037;-56
2022/01/15 13:46:47;;;;;;;36.67;16.73;;;5.20;99.90;;;;;;5035861;28;20472;-56
2022/01/15 13:49:14;;;;;;;34.97;17.55;;;5.20;99.90;;;;;;5033603;28;20025;-56
2022/01/15 13:54:38;;;;;;;33.88;16.80;;;5.20;99.90;;;;;;5033451;28;20072;-56
2022/01/15 13:57:07;;;;;;;37.40;19.00;;;5.20;99.90;;;;;;5033413;28;20519;-56
2022/01/15 13:59:35;;;;;;;33.95;16.02;;;5.20;99.90;;;;;;5033295;28;20034;-57
2022/01/15 14:02:07;;;;;;;34.67;16.48;;;5.10;99.90;;;;;;5035515;28;20044;-56